Time;durP1;ratioP1;P1;durP2;ratioP2;P2;SDS_P1;SDS_P2;PMS_P1;PMS_P2;Temp;Humidity;BMP_temperature;BMP_pressure;BME280_temperature;BME280_humidity;BME280_pressure;Samples;Min_cycle;Max_cycle;Signal;HPM_P1;HPM_P2
2022/11/23 00:01:23;;;;;;;12.30;7.63;;;;;;;2.52;95.83;99155.71;1405364;89;21420;-78
2022/11/23 00:03:52;;;;;;;16.90;9.47;;;;;;;2.51;95.16;99165.82;1489530;86;23031;-78
2022/11/23 00:06:20;;;;;;;16.20;9.57;;;;;;;2.51;95.39;99152.76;1499599;86;22102;-78
2022/11/23 00:08:47;;;;;;;16.80;10.57;;;;;;;2.49;95.50;99155.48;1462181;89;22057;-78
2022/11/23 00:11:13;;;;;;;20.43;11.50;;;;;;;2.52;95.83;99175.30;1463356;87;22147;-78
2022/11/23 00:13:40;;;;;;;18.97;9.60;;;;;;;2.56;96.02;99170.19;1473282;88;22098;-78
2022/11/23 00:16:10;;;;;;;15.33;9.43;;;;;;;2.58;95.23;99163.03;1475213;88;21985;-79
2022/11/23 00:18:36;;;;;;;16.63;10.33;;;;;;;2.59;94.57;99158.18;1472789;87;22931;-78
2022/11/23 00:21:15;;;;;;;15.63;9.57;;;;;;;2.62;94.91;99151.39;1471732;87;22075;-76
2022/11/23 00:23:42;;;;;;;20.20;12.50;;;;;;;2.63;94.58;99156.13;1388153;89;21479;-78
2022/11/23 00:26:10;;;;;;;18.70;10.27;;;;;;;2.64;94.63;99153.38;1437529;88;21980;-80
2022/11/23 00:28:39;;;;;;;13.97;8.93;;;;;;;2.62;94.26;99159.23;1497432;86;22053;-79
2022/11/23 00:31:07;;;;;;;19.23;12.67;;;;;;;2.56;93.25;99149.30;1498496;86;22931;-79
2022/11/23 00:33:34;;;;;;;20.67;11.67;;;;;;;2.51;92.90;99141.00;1506889;86;22091;-79
2022/11/23 00:36:07;;;;;;;22.70;13.10;;;;;;;2.53;93.46;99152.13;1497460;86;22082;-78
2022/11/23 00:38:34;;;;;;;20.43;13.00;;;;;;;2.57;94.16;99154.86;1487180;86;22067;-79
2022/11/23 00:41:04;;;;;;;21.40;11.70;;;;;;;2.62;94.55;99147.47;1482306;86;22187;-80
2022/11/23 00:43:31;;;;;;;23.67;13.97;;;;;;;2.68;94.60;99145.65;1480400;86;21958;-79
2022/11/23 00:46:25;;;;;;;22.23;13.67;;;;;;;2.72;94.17;99150.13;1504216;86;23089;-78
2022/11/23 00:48:54;;;;;;;27.87;14.67;;;;;;;2.72;94.19;99147.52;1488015;86;23057;-79
2022/11/23 00:51:28;;;;;;;23.73;14.23;;;;;;;2.70;93.60;99151.59;1484157;86;22878;-79
2022/11/23 00:53:54;;;;;;;27.07;14.10;;;;;;;2.69;93.62;99147.30;1473974;88;22148;-79
2022/11/23 00:56:21;;;;;;;21.97;11.53;;;;;;;2.66;93.47;99147.55;1463062;88;22351;-79
2022/11/23 00:58:50;;;;;;;22.87;12.03;;;;;;;2.64;93.42;99146.84;1475585;88;22017;-78
2022/11/23 01:01:18;;;;;;;17.37;10.50;;;;;;;2.66;93.71;99145.42;1480753;88;22119;-78
2022/11/23 01:03:49;;;;;;;16.47;11.33;;;;;;;2.67;92.70;99138.75;1477098;88;22081;-77
2022/11/23 01:06:23;;;;;;;15.63;9.13;;;;;;;2.66;92.04;99128.44;1506078;86;22933;-78
2022/11/23 01:08:55;;;;;;;15.00;9.80;;;;;;;2.64;91.65;99124.64;1503859;86;22001;-78
2022/11/23 01:11:24;;;;;;;21.33;12.05;;;;;;;2.63;91.90;99123.00;1453264;89;22316;-78
2022/11/23 01:13:51;;;;;;;17.87;10.37;;;;;;;2.62;92.22;99129.67;1488932;87;21493;-78
2022/11/23 01:16:22;;;;;;;17.60;10.73;;;;;;;2.62;92.83;99126.58;1455837;89;22133;-78
2022/11/23 01:18:54;;;;;;;22.70;11.95;;;;;;;2.60;92.68;99130.27;1484501;87;22135;-78
2022/11/23 01:21:21;;;;;;;20.37;10.73;;;;;;;2.60;92.74;99135.01;1450756;89;21838;-77
2022/11/23 01:23:47;;;;;;;15.67;9.87;;;;;;;2.59;92.16;99133.37;1501636;86;22046;-77
2022/11/23 01:26:13;;;;;;;20.80;9.77;;;;;;;2.62;92.61;99127.88;1507209;86;22006;-77
2022/11/23 01:28:40;;;;;;;16.67;9.70;;;;;;;2.66;92.66;99126.66;1511344;86;22282;-77
2022/11/23 01:31:16;;;;;;;15.13;10.07;;;;;;;2.70;92.23;99125.45;1498960;86;21637;-77
2022/11/23 01:33:42;;;;;;;17.37;10.60;;;;;;;2.73;92.37;99123.52;1490165;86;22176;-78
2022/11/23 01:36:16;;;;;;;20.43;12.40;;;;;;;2.70;91.25;99118.92;1487450;86;22149;-76
2022/11/23 01:38:44;;;;;;;18.33;10.87;;;;;;;2.68;91.25;99120.83;1490552;86;22172;-77
2022/11/23 01:41:23;;;;;;;14.43;9.00;;;;;;;2.65;91.14;99117.66;1502419;86;22180;-76
2022/11/23 01:43:50;;;;;;;14.63;8.70;;;;;;;2.61;90.95;99110.53;1480833;86;22145;-78
2022/11/23 01:46:17;;;;;;;15.23;9.50;;;;;;;2.62;91.72;99112.20;1475973;86;22056;-78
2022/11/23 01:48:48;;;;;;;20.30;10.00;;;;;;;2.65;91.69;99109.33;1483231;86;22237;-78
2022/11/23 01:51:28;;;;;;;13.33;8.87;;;;;;;2.69;92.00;99109.41;1507308;86;23147;-78
2022/11/23 01:54:14;;;;;;;15.43;9.23;;;;;;;2.74;91.74;99104.30;1509986;86;21271;-78
2022/11/23 01:56:45;;;;;;;12.33;7.40;;;;;;;2.73;91.27;99102.63;1448105;89;22250;-79
2022/11/23 01:59:15;;;;;;;19.70;9.95;;;;;;;2.68;89.83;99097.32;1465941;89;22598;-79
2022/11/23 02:01:43;;;;;;;19.12;10.18;;;;;;;2.67;90.50;99093.52;1501613;86;21374;-78
2022/11/23 02:04:14;;;;;;;16.33;9.93;;;;;;;2.65;90.70;99093.66;1492581;86;21264;-78
2022/11/23 02:06:43;;;;;;;15.90;10.13;;;;;;;2.62;90.62;99088.70;1501941;86;22229;-77
2022/11/23 02:09:10;;;;;;;13.77;8.87;;;;;;;2.59;90.62;99082.88;1500018;86;21433;-78
2022/11/23 02:11:36;;;;;;;14.90;8.93;;;;;;;2.58;90.74;99078.14;1493562;86;23395;-78
2022/11/23 02:14:02;;;;;;;16.20;9.33;;;;;;;2.60;90.67;99072.31;1488006;88;22156;-78
2022/11/23 02:16:29;;;;;;;12.93;8.27;;;;;;;2.65;91.04;99070.15;1482343;86;22112;-78
2022/11/23 02:18:55;;;;;;;15.67;9.03;;;;;;;2.68;90.94;99064.66;1488941;88;23181;-77
2022/11/23 02:21:22;;;;;;;18.83;10.03;;;;;;;2.70;90.47;99065.37;1478917;88;22255;-78
2022/11/23 02:24:12;;;;;;;17.67;9.40;;;;;;;2.65;89.89;99047.95;1488354;86;22111;-77
2022/11/23 02:26:38;;;;;;;15.27;8.80;;;;;;;2.64;89.80;99046.27;1505032;86;22961;-79
2022/11/23 02:29:22;;;;;;;15.90;9.80;;;;;;;2.58;89.44;99044.67;1501830;86;22241;-79
2022/11/23 02:31:49;;;;;;;16.13;8.83;;;;;;;2.59;89.52;99058.06;1506998;86;22365;-81
2022/11/23 02:34:17;;;;;;;12.80;8.23;;;;;;;2.61;90.26;99058.77;1494577;86;22062;-80
2022/11/23 02:36:50;;;;;;;16.23;9.37;;;;;;;2.63;90.25;99062.09;1485710;86;22012;-80
2022/11/23 02:39:22;;;;;;;18.43;8.50;;;;;;;2.65;90.09;99074.07;1455236;89;22057;-79
2022/11/23 02:41:52;;;;;;;15.70;8.57;;;;;;;2.70;90.30;99074.52;1473938;87;22235;-79
2022/11/23 02:44:42;;;;;;;15.97;8.90;;;;;;;2.74;90.03;99078.17;1481915;87;23024;-81
2022/11/23 02:47:10;;;;;;;17.00;7.83;;;;;;;2.76;90.39;99080.15;1469985;87;23413;-79
2022/11/23 02:49:36;;;;;;;17.00;8.70;;;;;;;2.66;89.74;99101.84;1481991;86;24101;-78
2022/11/23 02:52:03;;;;;;;13.10;7.97;;;;;;;2.66;89.74;99101.84;1477537;87;22074;-79
2022/11/23 02:54:29;;;;;;;13.80;7.87;;;;;;;2.72;89.88;99108.33;1482991;86;21545;-78
2022/11/23 02:56:55;;;;;;;15.20;8.50;;;;;;;2.74;90.37;99091.23;1506473;86;22171;-78
2022/11/23 02:59:21;;;;;;;13.37;8.13;;;;;;;2.78;90.64;99092.61;1455144;89;22152;-78
2022/11/23 03:01:48;;;;;;;16.20;8.67;;;;;;;2.84;90.84;99080.33;1472002;87;21323;-78
2022/11/23 03:04:14;;;;;;;17.23;8.93;;;;;;;2.87;90.26;99078.27;1468909;87;21985;-78
2022/11/23 03:06:41;;;;;;;14.20;8.67;;;;;;;2.91;90.33;99081.47;1469819;88;22058;-78
2022/11/23 03:09:08;;;;;;;15.93;8.37;;;;;;;2.92;89.99;99088.34;1443502;89;21339;-77
2022/11/23 03:11:34;;;;;;;25.13;11.70;;;;;;;2.93;90.22;99085.61;1454566;89;22330;-77
2022/11/23 03:14:00;;;;;;;25.00;13.57;;;;;;;2.93;89.88;99089.98;1463708;87;22911;-76
2022/11/23 03:16:26;;;;;;;28.40;12.23;;;;;;;2.90;90.06;99088.95;1476426;88;22046;-79
2022/11/23 03:18:52;;;;;;;16.53;8.83;;;;;;;2.88;89.89;99077.81;1481105;88;21456;-78
2022/11/23 03:21:18;;;;;;;14.90;8.90;;;;;;;2.86;89.93;99068.79;1473085;88;22147;-78
2022/11/23 03:23:44;;;;;;;12.40;7.33;;;;;;;2.88;90.38;99062.14;1451752;88;22114;-75
2022/11/23 03:26:11;;;;;;;13.60;8.27;;;;;;;2.88;90.16;99052.99;1467688;88;22085;-77
2022/11/23 03:28:37;;;;;;;11.77;6.73;;;;;;;2.90;89.77;99053.66;1467887;87;21383;-77
2022/11/23 03:31:03;;;;;;;14.27;8.67;;;;;;;2.94;90.06;99053.28;1477562;87;23033;-77
2022/11/23 03:33:29;;;;;;;12.50;7.23;;;;;;;2.94;89.40;99055.07;1492675;87;22117;-77
2022/11/23 03:35:55;;;;;;;12.03;7.27;;;;;;;2.92;89.08;99057.80;1467978;87;22069;-77
2022/11/23 03:38:21;;;;;;;12.60;7.10;;;;;;;2.92;89.26;99064.34;1436371;89;22146;-77
2022/11/23 03:40:48;;;;;;;14.10;7.80;;;;;;;2.91;89.12;99064.00;1486609;86;22274;-77
2022/11/23 03:43:14;;;;;;;23.27;9.20;;;;;;;2.88;88.99;99056.91;1490743;86;23096;-77
2022/11/23 03:45:41;;;;;;;13.07;8.53;;;;;;;2.84;88.87;99054.20;1483829;86;22216;-77
2022/11/23 03:48:07;;;;;;;18.07;8.73;;;;;;;2.84;89.54;99052.89;1499342;86;22520;-76
2022/11/23 03:50:34;;;;;;;11.27;7.40;;;;;;;2.84;89.79;99052.41;1508241;86;23011;-76
2022/11/23 03:53:00;;;;;;;12.63;8.17;;;;;;;2.87;89.62;99050.01;1492702;86;22097;-76
2022/11/23 03:55:26;;;;;;;14.87;7.60;;;;;;;2.90;89.55;99054.48;1491233;86;22048;-76
2022/11/23 03:57:54;;;;;;;12.47;7.40;;;;;;;2.94;89.44;99052.46;1486309;88;22812;-76
2022/11/23 04:00:20;;;;;;;12.90;8.90;;;;;;;2.96;88.96;99051.83;1434586;91;22128;-75
2022/11/23 04:02:46;;;;;;;14.77;8.53;;;;;;;2.96;88.95;99046.59;1473529;89;22189;-74
2022/11/23 04:05:13;;;;;;;12.33;7.60;;;;;;;2.96;89.06;99043.98;1430426;91;23298;-75
2022/11/23 04:07:39;;;;;;;12.33;8.17;;;;;;;2.96;89.17;99045.77;1460817;89;22211;-76
2022/11/23 04:10:06;;;;;;;12.37;7.03;;;;;;;2.93;88.92;99050.78;1460609;88;21997;-75
2022/11/23 04:12:32;;;;;;;10.83;6.80;;;;;;;2.89;88.60;99046.80;1460598;89;22106;-77
2022/11/23 04:14:58;;;;;;;10.93;6.47;;;;;;;2.85;87.77;99051.92;1452582;89;22090;-77
2022/11/23 04:17:24;;;;;;;12.30;7.80;;;;;;;2.84;88.11;99043.74;1461821;89;22697;-78
2022/11/23 04:19:50;;;;;;;10.60;6.87;;;;;;;2.84;87.89;99060.25;1467600;89;21383;-77
2022/11/23 04:22:16;;;;;;;13.17;7.27;;;;;;;2.84;88.06;99054.20;1457071;89;22096;-78
2022/11/23 04:24:42;;;;;;;15.60;6.80;;;;;;;2.86;88.41;99064.87;1483711;87;21382;-77
2022/11/23 04:27:08;;;;;;;11.17;6.20;;;;;;;2.87;88.40;99060.46;1456957;89;22277;-78
2022/11/23 04:29:34;;;;;;;10.67;6.87;;;;;;;2.88;88.82;99060.83;1487039;87;21272;-76
2022/11/23 04:32:00;;;;;;;17.03;8.57;;;;;;;2.90;88.94;99068.04;1490060;87;21405;-74
2022/11/23 04:34:26;;;;;;;11.07;6.80;;;;;;;2.89;88.94;99066.39;1489014;87;22307;-77
2022/11/23 04:36:52;;;;;;;11.57;7.63;;;;;;;2.87;88.76;99063.08;1475712;87;21995;-79
2022/11/23 04:39:18;;;;;;;10.30;7.43;;;;;;;2.85;89.03;99064.53;1470450;88;21390;-79
2022/11/23 04:41:44;;;;;;;12.20;7.77;;;;;;;2.84;89.23;99069.88;1479669;87;21994;-79
2022/11/23 04:44:10;;;;;;;13.87;8.30;;;;;;;2.83;89.55;99063.83;1470844;88;23010;-78
2022/11/23 04:46:36;;;;;;;13.00;6.20;;;;;;;2.80;89.27;99065.88;1472069;88;21353;-78
2022/11/23 04:49:02;;;;;;;11.43;6.60;;;;;;;2.82;89.70;99063.48;1441430;89;21287;-77
2022/11/23 04:51:29;;;;;;;12.10;7.00;;;;;;;2.84;90.14;99064.65;1482972;87;22054;-77
2022/11/23 04:53:55;;;;;;;10.50;6.07;;;;;;;2.84;89.84;99060.73;1450543;89;22123;-77
2022/11/23 04:56:21;;;;;;;12.60;7.23;;;;;;;2.78;89.96;99057.34;1483720;88;22994;-77
2022/11/23 04:58:47;;;;;;;17.63;8.60;;;;;;;2.78;90.08;99059.95;1480329;87;22020;-77
2022/11/23 05:01:13;;;;;;;12.73;8.33;;;;;;;2.77;91.10;99064.84;1443901;89;21314;-78
2022/11/23 05:03:39;;;;;;;10.63;6.90;;;;;;;2.76;91.06;99063.98;1471843;87;21330;-77
2022/11/23 05:06:06;;;;;;;14.50;7.47;;;;;;;2.77;91.67;99069.58;1480152;87;23065;-77
2022/11/23 05:08:32;;;;;;;13.30;7.80;;;;;;;2.79;92.32;99064.20;1443358;89;22996;-76
2022/11/23 05:10:58;;;;;;;11.33;7.33;;;;;;;2.80;92.70;99071.93;1443933;89;22091;-77
2022/11/23 05:13:24;;;;;;;10.80;6.67;;;;;;;2.81;92.22;99070.14;1488488;87;22005;-79
2022/11/23 05:15:50;;;;;;;14.37;8.03;;;;;;;2.79;92.45;99066.82;1468074;87;21441;-78
2022/11/23 05:18:16;;;;;;;14.03;8.03;;;;;;;2.77;92.30;99072.68;1482651;87;22916;-77
2022/11/23 05:20:42;;;;;;;11.17;6.63;;;;;;;2.71;92.65;99070.93;1485578;87;21345;-77
2022/11/23 05:23:10;;;;;;;11.53;7.43;;;;;;;2.68;93.55;99071.20;1491830;87;22185;-77
2022/11/23 05:25:36;;;;;;;9.87;6.57;;;;;;;2.59;94.09;99068.52;1490200;87;22840;-79
2022/11/23 05:28:02;;;;;;;13.00;8.17;;;;;;;2.51;95.26;99066.57;1444639;89;22130;-77
2022/11/23 05:30:28;;;;;;;12.33;8.10;;;;;;;2.47;95.60;99071.69;1472090;87;22006;-77
2022/11/23 05:33:01;;;;;;;12.63;7.80;;;;;;;2.45;95.57;99071.01;1480134;87;22108;-79
2022/11/23 05:35:28;;;;;;;13.90;8.60;;;;;;;2.45;96.01;99064.48;1487137;87;22304;-78
2022/11/23 05:37:55;;;;;;;12.27;7.90;;;;;;;2.48;95.99;99064.22;1491813;86;22041;-78
2022/11/23 05:40:21;;;;;;;11.70;7.27;;;;;;;2.47;95.99;99063.84;1485789;88;22069;-80
2022/11/23 05:42:48;;;;;;;15.63;9.17;;;;;;;2.46;96.79;99060.91;1441381;87;23225;-80
2022/11/23 05:45:14;;;;;;;12.57;8.27;;;;;;;2.43;96.56;99058.55;1425756;91;22070;-79
2022/11/23 05:47:40;;;;;;;13.20;8.23;;;;;;;2.43;96.56;99058.55;1449981;90;22127;-80
2022/11/23 05:50:08;;;;;;;14.90;8.87;;;;;;;2.44;96.67;99068.84;1436693;90;23241;-80
2022/11/23 05:52:34;;;;;;;14.20;7.20;;;;;;;2.46;97.78;99060.91;1429436;91;23282;-78
2022/11/23 05:55:00;;;;;;;14.27;8.47;;;;;;;2.46;97.78;99060.91;1435489;91;22173;-78
2022/11/23 05:57:26;;;;;;;13.13;8.37;;;;;;;2.48;97.53;99062.43;1432300;91;23099;-78
2022/11/23 05:59:52;;;;;;;13.77;7.40;;;;;;;2.50;97.45;99067.51;1433521;91;22172;-78
2022/11/23 06:02:18;;;;;;;13.60;8.10;;;;;;;2.55;97.37;99069.26;1428858;91;21459;-78
2022/11/23 06:04:44;;;;;;;17.87;8.47;;;;;;;2.59;97.51;99066.75;1435870;91;22240;-77
2022/11/23 06:07:10;;;;;;;18.63;10.17;;;;;;;2.64;97.71;99065.86;1425407;91;23105;-78
2022/11/23 06:09:36;;;;;;;13.87;8.07;;;;;;;2.66;97.60;99067.05;1433247;91;21445;-78
2022/11/23 06:12:03;;;;;;;14.83;8.93;;;;;;;2.67;97.59;99066.08;1431361;91;22172;-79
2022/11/23 06:14:30;;;;;;;18.10;9.03;;;;;;;2.66;97.56;99067.88;1430677;91;22129;-78
2022/11/23 06:16:56;;;;;;;12.57;8.67;;;;;;;2.65;97.54;99065.86;1435014;91;23582;-79
2022/11/23 06:19:22;;;;;;;17.87;9.80;;;;;;;2.64;98.25;99065.86;1438573;91;22166;-77
2022/11/23 06:21:48;;;;;;;12.73;7.50;;;;;;;2.66;97.95;99073.09;1431162;91;23430;-77
2022/11/23 06:24:14;;;;;;;15.03;8.73;;;;;;;2.68;97.67;99081.64;1418964;91;22143;-77
2022/11/23 06:26:40;;;;;;;12.87;8.07;;;;;;;2.70;97.77;99081.50;1438514;91;22480;-78
2022/11/23 06:29:06;;;;;;;14.53;9.27;;;;;;;2.69;97.32;99080.67;1435819;91;22017;-78
2022/11/23 06:31:32;;;;;;;13.20;7.87;;;;;;;2.75;97.63;99078.50;1430337;91;22187;-77
2022/11/23 06:33:58;;;;;;;13.13;8.30;;;;;;;2.77;97.59;99078.73;1440689;91;23060;-77
2022/11/23 06:36:24;;;;;;;12.50;7.60;;;;;;;2.76;97.88;99084.89;1433345;91;21555;-77
2022/11/23 06:38:50;;;;;;;15.53;8.03;;;;;;;2.76;98.34;99074.92;1431423;91;21363;-77
2022/11/23 06:41:16;;;;;;;11.87;8.20;;;;;;;2.75;98.15;99075.89;1432340;91;23127;-78
2022/11/23 06:43:44;;;;;;;11.73;7.73;;;;;;;2.74;98.07;99076.86;1435789;90;22470;-79
2022/11/23 06:46:11;;;;;;;14.03;7.57;;;;;;;2.78;98.40;99081.67;1451102;90;22170;-80
2022/11/23 06:48:37;;;;;;;18.37;8.40;;;;;;;2.81;98.19;99081.90;1443566;90;22180;-77
2022/11/23 06:51:03;;;;;;;15.27;8.27;;;;;;;2.83;98.24;99081.30;1444359;90;22101;-77
2022/11/23 06:53:29;;;;;;;13.03;7.57;;;;;;;2.87;97.92;99074.84;1447431;90;23030;-76
2022/11/23 06:55:59;;;;;;;16.07;9.10;;;;;;;2.82;97.67;99064.80;1445925;90;22098;-77
2022/11/23 06:58:26;;;;;;;13.98;8.55;;;;;;;2.80;97.78;99063.27;1451269;90;22313;-77
2022/11/23 07:00:52;;;;;;;16.50;9.70;;;;;;;2.80;98.11;99063.53;1442585;90;21407;-77
2022/11/23 07:03:22;;;;;;;13.27;8.80;;;;;;;2.77;98.33;99063.53;1452022;90;22129;-77
2022/11/23 07:05:49;;;;;;;15.27;9.60;;;;;;;2.84;98.87;99072.48;1446064;90;22267;-76
2022/11/23 07:08:15;;;;;;;16.20;8.80;;;;;;;2.89;98.88;99066.39;1443263;90;22113;-76
2022/11/23 07:10:41;;;;;;;20.63;11.37;;;;;;;2.97;99.04;99067.88;1446063;90;22055;-76
2022/11/23 07:13:09;;;;;;;21.63;10.63;;;;;;;3.03;99.14;99066.52;1438754;90;22189;-75
2022/11/23 07:15:37;;;;;;;14.60;9.37;;;;;;;3.11;98.71;99070.13;1446538;90;22014;-76
2022/11/23 07:18:05;;;;;;;18.50;10.40;;;;;;;3.20;98.49;99068.49;1458240;90;22564;-76
2022/11/23 07:20:34;;;;;;;30.63;12.63;;;;;;;3.25;98.49;99079.39;1444901;90;22139;-76
2022/11/23 07:23:07;;;;;;;22.43;9.87;;;;;;;3.27;98.68;99070.91;1447851;90;22200;-81
2022/11/23 07:25:35;;;;;;;20.37;10.07;;;;;;;3.30;98.48;99068.50;1440237;90;22132;-82
2022/11/23 07:28:04;;;;;;;17.43;8.90;;;;;;;3.35;98.68;99059.78;1438807;90;22057;-82
2022/11/23 07:30:32;;;;;;;15.87;9.03;;;;;;;3.35;98.68;99059.78;1439785;90;22240;-81
2022/11/23 07:33:04;;;;;;;14.37;7.97;;;;;;;3.40;98.63;99056.29;1432016;90;22750;-81
2022/11/23 07:35:31;;;;;;;20.63;9.87;;;;;;;3.49;97.99;99054.16;1415921;92;22058;-82
2022/11/23 07:37:58;;;;;;;22.13;8.33;;;;;;;3.60;98.03;99063.68;1415578;92;22633;-82
2022/11/23 07:40:25;;;;;;;22.00;9.80;;;;;;;3.60;98.03;99063.68;1438203;90;21368;-82
2022/11/23 07:42:52;;;;;;;15.53;8.93;;;;;;;3.66;97.92;99052.66;1445297;88;22654;-82
2022/11/23 07:45:18;;;;;;;13.73;9.27;;;;;;;3.66;97.92;99052.66;1424983;90;21894;-82
2022/11/23 07:47:45;;;;;;;18.00;9.53;;;;;;;3.73;97.42;99051.62;1433241;90;22235;-82
2022/11/23 07:50:12;;;;;;;36.27;17.63;;;;;;;3.73;97.42;99051.62;1436355;90;22034;-81
2022/11/23 07:52:40;;;;;;;18.23;10.93;;;;;;;3.78;97.31;99059.41;1435239;90;22588;-82
2022/11/23 07:55:07;;;;;;;251.57;137.47;;;;;;;3.75;96.38;99057.55;1426277;90;22492;-83
2022/11/23 07:57:33;;;;;;;369.40;228.93;;;;;;;3.83;96.06;99068.98;1426640;91;21422;-83
2022/11/23 07:59:59;;;;;;;160.70;98.93;;;;;;;3.89;96.35;99072.84;1428661;91;21460;-83
2022/11/23 08:02:25;;;;;;;268.73;140.13;;;;;;;3.92;96.30;99077.80;1434290;91;21464;-82
2022/11/23 08:04:51;;;;;;;145.73;71.50;;;;;;;3.97;96.41;99079.99;1451748;89;22366;-85
2022/11/23 08:07:17;;;;;;;307.73;161.77;;;;;;;4.01;96.60;99093.17;1443026;90;21456;-82
2022/11/23 08:09:43;;;;;;;141.33;82.37;;;;;;;4.02;96.31;99085.64;1458845;89;21338;-83
2022/11/23 08:12:09;;;;;;;41.30;27.97;;;;;;;4.02;95.68;99083.84;1440895;90;22396;-83
2022/11/23 08:14:35;;;;;;;11.17;6.17;;;;;;;4.08;95.61;99077.23;1452729;89;21442;-83
2022/11/23 08:17:04;;;;;;;11.33;7.20;;;;;;;4.09;94.49;99079.39;1455726;89;21390;-83
2022/11/23 08:19:31;;;;;;;18.12;11.97;;;;;;;4.09;93.79;99076.28;1445997;90;21443;-83
2022/11/23 08:21:57;;;;;;;15.10;11.17;;;;;;;4.11;93.83;99081.37;1424378;91;21396;-83
2022/11/23 08:24:23;;;;;;;22.57;13.33;;;;;;;4.15;94.58;99086.20;1432666;89;21615;-84
2022/11/23 08:26:49;;;;;;;15.63;9.33;;;;;;;4.16;94.21;99079.98;1428867;91;22448;-82
2022/11/23 08:29:15;;;;;;;16.43;11.17;;;;;;;4.12;93.40;99076.50;1419695;91;21442;-83
2022/11/23 08:31:42;;;;;;;16.30;8.77;;;;;;;4.14;94.37;99078.47;1427494;91;21671;-84
2022/11/23 08:34:08;;;;;;;14.13;8.87;;;;;;;4.16;94.56;99087.84;1447837;90;21531;-84
2022/11/23 08:36:35;;;;;;;16.50;11.63;;;;;;;4.17;94.38;99083.42;1424026;91;22411;-84
2022/11/23 08:39:01;;;;;;;18.07;12.07;;;;;;;4.20;93.75;99085.77;1439809;90;21778;-84
2022/11/23 08:41:27;;;;;;;24.83;14.10;;;;;;;4.25;94.24;99080.45;1447635;90;22366;-83
2022/11/23 08:43:53;;;;;;;21.30;13.00;;;;;;;4.34;94.66;99082.71;1427687;91;21398;-83
2022/11/23 08:46:22;;;;;;;19.37;12.97;;;;;;;4.42;93.94;99078.91;1424976;91;21420;-83
2022/11/23 08:48:48;;;;;;;12.60;7.97;;;;;;;4.50;94.40;99081.66;1433004;91;21501;-81
2022/11/23 08:51:14;;;;;;;17.37;10.23;;;;;;;4.45;91.91;99082.55;1428871;91;22315;-85
2022/11/23 08:53:40;;;;;;;12.70;6.97;;;;;;;4.47;92.48;99080.63;1430857;91;22961;-81
2022/11/23 08:56:07;;;;;;;20.60;10.30;;;;;;;4.50;92.00;99076.41;1425481;91;21541;-84
2022/11/23 08:58:33;;;;;;;13.20;8.17;;;;;;;4.55;92.50;99069.94;1426828;91;22337;-84
2022/11/23 09:00:59;;;;;;;11.20;7.90;;;;;;;4.58;92.04;99070.97;1434674;91;21399;-84
2022/11/23 09:03:26;;;;;;;18.53;12.70;;;;;;;4.61;91.02;99056.27;1432182;91;21405;-82
2022/11/23 09:05:53;;;;;;;19.90;12.33;;;;;;;4.58;91.31;99050.00;1424451;91;21449;-84
2022/11/23 09:08:19;;;;;;;21.03;12.47;;;;;;;4.55;90.95;99043.73;1419355;91;21479;-83
2022/11/23 09:10:45;;;;;;;17.63;11.27;;;;;;;4.56;91.45;99048.82;1427961;91;21456;-84
2022/11/23 09:13:12;;;;;;;15.40;9.13;;;;;;;4.58;91.19;99061.80;1425125;91;22285;-84
2022/11/23 09:15:38;;;;;;;14.07;8.40;;;;;;;4.57;90.15;99063.56;1398179;93;21491;-84
2022/11/23 09:18:04;;;;;;;31.93;19.60;;;;;;;4.54;89.58;99065.16;1429114;91;21943;-82
2022/11/23 09:20:30;;;;;;;18.03;12.20;;;;;;;4.62;91.45;99056.59;1430071;91;21346;-84
2022/11/23 09:22:56;;;;;;;14.07;9.17;;;;;;;4.69;91.34;99061.59;1430726;91;22256;-84
2022/11/23 09:25:23;;;;;;;11.50;8.33;;;;;;;4.71;90.64;99050.48;1422872;91;21405;-84
2022/11/23 09:27:51;;;;;;;19.93;12.63;;;;;;;4.70;89.92;99054.91;1428280;91;21568;-85
2022/11/23 09:30:17;;;;;;;17.00;7.63;;;;;;;4.73;90.18;99058.55;1423384;91;22607;-84
2022/11/23 09:32:43;;;;;;;56.17;34.13;;;;;;;4.76;89.96;99061.38;1421122;91;21398;-84
2022/11/23 09:35:09;;;;;;;28.13;18.73;;;;;;;4.79;90.39;99055.84;1427078;91;21479;-83
2022/11/23 09:37:35;;;;;;;31.73;21.03;;;;;;;4.75;88.62;99050.56;1428070;91;23180;-84
2022/11/23 09:40:02;;;;;;;12.77;8.13;;;;;;;4.72;89.81;99048.23;1426516;91;24950;-84
2022/11/23 09:42:50;;;;;;;11.93;6.80;;;;;;;4.68;89.52;99045.53;1450603;89;21478;-84
2022/11/23 09:45:31;;;;;;;13.70;7.80;;;;;;;4.63;89.00;99042.51;1463932;89;21397;-84
2022/11/23 09:48:31;;;;;;;13.10;8.48;;;;;;;4.64;90.02;99048.11;1461499;89;21567;-84
2022/11/23 09:51:19;;;;;;;12.47;8.50;;;;;;;4.71;90.72;99043.94;1433494;89;21679;-81
2022/11/23 09:54:18;;;;;;;11.43;8.43;;;;;;;4.72;88.86;99039.05;1424677;92;21405;-81
2022/11/23 09:56:48;;;;;;;10.33;6.67;;;;;;;4.76;89.40;99033.85;1407987;93;21524;-82
2022/11/23 09:59:42;;;;;;;11.00;6.80;;;;;;;4.82;88.85;99034.58;1497184;90;22273;-81
2022/11/23 10:02:23;;;;;;;12.37;9.10;;;;;;;4.90;89.41;99032.55;1337200;93;21402;-81
2022/11/23 10:04:53;;;;;;;8.80;6.10;;;;;;;5.05;90.18;99030.27;1465509;92;21575;-82
2022/11/23 10:07:45;;;;;;;12.70;5.53;;;;;;;5.11;87.65;99029.67;1403823;93;21513;-82
2022/11/23 10:10:38;;;;;;;9.03;6.07;;;;;;;5.12;86.81;99022.14;1415591;92;21464;-82
2022/11/23 10:13:22;;;;;;;9.33;6.67;;;;;;;5.18;86.47;99016.33;1421917;91;21435;-83
2022/11/23 10:16:35;;;;;;;8.43;5.87;;;;;;;5.27;87.09;99013.31;1422541;92;21412;-83
2022/11/23 10:19:27;;;;;;;15.40;7.27;;;;;;;5.37;86.26;99010.94;1408652;93;21524;-84
2022/11/23 10:22:27;;;;;;;8.30;6.03;;;;;;;5.68;88.33;99005.33;1420640;92;21493;-84
2022/11/23 10:24:55;;;;;;;12.78;8.18;;;;;;;5.67;82.99;99008.94;1374616;93;21496;-84
2022/11/23 10:27:24;;;;;;;16.57;8.13;;;;;;;5.78;85.23;99005.23;1424514;92;21687;-84
2022/11/23 10:29:53;;;;;;;12.03;6.33;;;;;;;5.87;85.58;99003.03;1406243;93;22330;-84
2022/11/23 10:32:36;;;;;;;11.13;6.70;;;;;;;5.89;82.52;99010.25;1421200;92;21412;-84
2022/11/23 10:35:27;;;;;;;12.03;7.17;;;;;;;5.80;82.35;99001.48;1407693;92;21554;-85
2022/11/23 10:38:14;;;;;;;9.65;6.40;;;;;;;5.86;83.31;99008.75;1417834;92;22477;-84
2022/11/23 10:40:58;;;;;;;9.03;6.00;;;;;;;5.81;82.37;99001.84;1410056;93;22522;-84
2022/11/23 10:43:47;;;;;;;10.80;7.37;;;;;;;5.85;82.66;99003.66;1422888;92;21441;-85
2022/11/23 10:46:31;;;;;;;8.20;5.43;;;;;;;5.86;82.20;99011.87;1408154;93;21642;-84
2022/11/23 10:49:17;;;;;;;9.43;6.37;;;;;;;5.83;81.54;99010.36;1421511;92;21457;-84
2022/11/23 10:52:04;;;;;;;8.73;5.70;;;;;;;5.91;83.17;99019.30;1421114;92;21590;-84
2022/11/23 10:54:38;;;;;;;10.03;6.40;;;;;;;6.00;83.46;99017.09;1443641;90;21604;-84
2022/11/23 10:57:35;;;;;;;9.27;6.07;;;;;;;6.08;82.81;99011.91;1444727;90;21412;-85
2022/11/23 11:00:13;;;;;;;8.37;5.53;;;;;;;6.00;80.72;99018.41;1436956;91;21629;-85
2022/11/23 11:02:46;;;;;;;9.57;6.03;;;;;;;5.96;80.57;99024.96;1442241;90;21445;-85
2022/11/23 11:05:35;;;;;;;8.70;5.37;;;;;;;5.98;81.35;99031.68;1440721;90;21581;-84
2022/11/23 11:08:13;;;;;;;6.93;5.53;;;;;;;6.00;81.84;99028.92;1416166;92;22528;-84
2022/11/23 11:10:48;;;;;;;7.47;6.33;;;;;;;5.95;80.79;99031.17;1421161;92;21480;-82
2022/11/23 11:13:31;;;;;;;10.10;5.90;;;;;;;5.96;81.60;99021.84;1414319;92;21568;-84
2022/11/23 11:16:07;;;;;;;9.87;5.93;;;;;;;6.05;82.26;99023.55;1421344;92;22176;-84
2022/11/23 11:18:36;;;;;;;13.60;6.73;;;;;;;6.07;81.28;99019.44;1415771;92;21608;-84
2022/11/23 11:21:37;;;;;;;8.43;5.53;;;;;;;6.13;81.51;99018.00;1399996;92;21516;-84
2022/11/23 11:24:08;;;;;;;11.15;6.03;;;;;;;6.10;81.01;99019.98;1421667;89;22742;-85
2022/11/23 11:26:37;;;;;;;13.70;7.40;;;;;;;6.04;79.11;99010.55;1434545;91;21606;-85
2022/11/23 11:29:08;;;;;;;10.80;5.93;;;;;;;6.04;79.46;99014.48;1438054;91;22403;-85
2022/11/23 11:32:06;;;;;;;9.63;6.62;;;;;;;5.99;79.03;99009.71;1437150;91;21368;-86
2022/11/23 11:34:53;;;;;;;11.73;7.50;;;;;;;5.93;78.44;99000.25;1444427;91;21347;-87
2022/11/23 11:37:45;;;;;;;13.70;7.00;;;;;;;5.96;79.45;99009.20;1437862;90;21560;-82
2022/11/23 11:40:37;;;;;;;13.97;6.97;;;;;;;5.96;78.31;99007.39;1436905;90;21941;-82
2022/11/23 11:43:22;;;;;;;8.50;5.73;;;;;;;6.07;79.79;99011.55;1435433;91;21323;-80
2022/11/23 11:45:54;;;;;;;11.97;6.67;;;;;;;6.18;80.86;99007.37;1437172;91;22559;-84